Time;durP1;ratioP1;P1;durP2;ratioP2;P2;SDS_P1;SDS_P2;PMS_P1;PMS_P2;Temp;Humidity;BMP_temperature;BMP_pressure;BME280_temperature;BME280_humidity;BME280_pressure;Samples;Min_cycle;Max_cycle;Signal;HPM_P1;HPM_P2
2023/07/16 00:00:50;;;;;;;5.45;1.75;;;13.70;99.90;;;;;;4922919;29;20032;-89
2023/07/16 00:03:16;;;;;;;7.78;1.23;;;13.70;99.90;;;;;;4922663;29;20036;-89
2023/07/16 00:05:42;;;;;;;4.53;1.27;;;13.70;99.90;;;;;;4924699;29;20508;-89
2023/07/16 00:08:07;;;;;;;2.90;0.90;;;13.70;99.90;;;;;;4923247;29;20028;-89
2023/07/16 00:10:35;;;;;;;6.22;1.30;;;13.70;99.90;;;;;;4921855;29;20056;-89
2023/07/16 00:13:02;;;;;;;4.43;1.27;;;13.70;99.90;;;;;;4924628;29;20452;-89
2023/07/16 00:15:28;;;;;;;8.65;1.52;;;13.70;99.90;;;;;;4926284;29;20024;-91
2023/07/16 00:17:54;;;;;;;10.77;1.30;;;13.70;99.90;;;;;;4927173;29;20038;-89
2023/07/16 00:20:21;;;;;;;6.78;1.33;;;13.70;99.90;;;;;;4931341;29;20039;-90
2023/07/16 00:22:46;;;;;;;6.07;1.42;;;13.70;99.90;;;;;;4928360;29;20044;-89
2023/07/16 00:25:12;;;;;;;8.10;1.55;;;13.80;99.90;;;;;;4927670;29;20694;-89
2023/07/16 00:27:38;;;;;;;5.15;1.17;;;13.70;99.90;;;;;;4928870;29;20027;-90
2023/07/16 00:30:05;;;;;;;5.20;1.38;;;13.70;99.90;;;;;;4931203;29;20028;-90
2023/07/16 00:32:31;;;;;;;7.25;1.33;;;13.80;99.90;;;;;;4925746;29;20036;-91
2023/07/16 00:34:57;;;;;;;3.50;1.00;;;13.80;99.90;;;;;;4924127;29;20055;-90
2023/07/16 00:37:23;;;;;;;9.27;1.33;;;13.80;99.90;;;;;;4925032;29;20040;-88
2023/07/16 00:39:48;;;;;;;6.85;0.95;;;13.80;99.90;;;;;;4923431;29;20020;-87
2023/07/16 00:42:14;;;;;;;4.85;0.95;;;13.80;99.90;;;;;;4924284;29;20031;-88
2023/07/16 00:44:39;;;;;;;6.28;1.30;;;13.80;99.90;;;;;;4924029;29;20091;-89
2023/07/16 00:47:05;;;;;;;4.05;1.00;;;13.80;99.90;;;;;;4922452;29;20526;-90
2023/07/16 00:49:31;;;;;;;4.68;1.20;;;13.80;99.90;;;;;;4928824;29;20055;-90
2023/07/16 00:51:59;;;;;;;3.55;0.75;;;13.80;99.90;;;;;;4929547;29;20043;-91
2023/07/16 00:54:25;;;;;;;4.97;1.45;;;13.80;99.90;;;;;;4929131;29;20048;-90
2023/07/16 00:56:51;;;;;;;5.57;1.08;;;13.80;99.90;;;;;;4932150;29;20042;-91
2023/07/16 00:59:16;;;;;;;6.03;1.00;;;13.80;99.90;;;;;;4929503;29;20059;-90
2023/07/16 01:01:42;;;;;;;5.35;1.00;;;13.80;99.90;;;;;;4929224;29;20545;-91
2023/07/16 01:04:08;;;;;;;5.65;1.50;;;13.80;99.90;;;;;;4926052;29;20030;-91
2023/07/16 01:06:50;;;;;;;4.55;0.90;;;13.80;99.90;;;;;;4933909;29;20048;-89
2023/07/16 01:09:18;;;;;;;5.93;2.20;;;13.70;99.90;;;;;;4932102;29;20493;-89
2023/07/16 01:11:45;;;;;;;2.45;0.65;;;13.70;99.90;;;;;;4926996;29;20052;-91
2023/07/16 01:14:12;;;;;;;6.07;1.05;;;13.70;99.90;;;;;;4929154;29;20024;-91
2023/07/16 01:16:38;;;;;;;5.10;1.17;;;13.70;99.90;;;;;;4932087;29;20040;-90
2023/07/16 01:19:04;;;;;;;4.03;1.05;;;13.70;99.90;;;;;;4930972;29;20036;-91
2023/07/16 01:22:00;;;;;;;3.13;1.33;;;13.70;99.90;;;;;;4931538;29;20016;-90
2023/07/16 01:24:39;;;;;;;4.90;0.85;;;13.70;99.90;;;;;;4931316;29;20028;-89
2023/07/16 01:27:34;;;;;;;4.07;0.90;;;13.70;99.90;;;;;;4932093;29;20486;-90
2023/07/16 01:30:08;;;;;;;1.95;1.48;;;13.70;99.90;;;;;;4946481;29;20028;-90
2023/07/16 01:32:36;;;;;;;4.70;0.73;;;13.60;99.90;;;;;;4929933;29;20366;-90
2023/07/16 01:35:04;;;;;;;2.33;0.60;;;13.60;99.90;;;;;;4928917;29;20028;-89
2023/07/16 01:37:30;;;;;;;6.25;1.05;;;13.70;99.90;;;;;;4930265;29;20032;-90
2023/07/16 01:39:55;;;;;;;2.35;0.85;;;13.70;99.90;;;;;;4929761;29;20036;-90
2023/07/16 01:42:21;;;;;;;3.10;0.55;;;13.70;99.90;;;;;;4930781;29;20063;-89
2023/07/16 01:44:47;;;;;;;3.25;0.50;;;13.70;99.90;;;;;;4930419;29;20020;-89
2023/07/16 01:47:37;;;;;;;2.83;0.60;;;13.70;99.90;;;;;;4929998;29;20028;-90
2023/07/16 01:50:03;;;;;;;;;;;13.60;99.90;;;;;;4929100;29;20019;-90
2023/07/16 01:52:29;;;;;;;3.78;0.50;;;13.60;99.90;;;;;;4929175;29;20289;-89
2023/07/16 01:54:54;;;;;;;2.45;0.70;;;13.60;99.90;;;;;;4928231;29;20146;-88
2023/07/16 01:57:20;;;;;;;2.33;0.40;;;13.60;99.90;;;;;;4928117;29;20044;-90
2023/07/16 01:59:46;;;;;;;2.80;0.90;;;13.60;99.90;;;;;;4928416;29;20030;-90
2023/07/16 02:02:12;;;;;;;4.22;0.60;;;13.50;99.90;;;;;;4928850;29;20091;-89
2023/07/16 02:04:37;;;;;;;1.50;0.77;;;13.50;99.90;;;;;;4928217;29;20027;-90
2023/07/16 02:07:03;;;;;;;3.53;0.57;;;13.50;99.90;;;;;;4928442;29;20553;-90
2023/07/16 02:09:29;;;;;;;3.17;0.60;;;13.50;99.90;;;;;;4929260;29;20028;-88
2023/07/16 02:11:55;;;;;;;1.02;0.35;;;13.50;99.90;;;;;;4929763;29;20031;-89
2023/07/16 02:14:20;;;;;;;1.02;0.50;;;13.50;99.90;;;;;;4928754;29;20028;-90
2023/07/16 02:16:46;;;;;;;2.50;0.55;;;13.50;99.90;;;;;;4930384;29;20485;-91
2023/07/16 02:19:12;;;;;;;0.95;0.40;;;13.50;99.90;;;;;;4933652;29;20035;-90
2023/07/16 02:21:37;;;;;;;3.53;0.50;;;13.40;99.90;;;;;;4929914;29;20035;-90
2023/07/16 02:24:03;;;;;;;0.82;0.40;;;13.40;99.90;;;;;;4926630;29;20023;-90
2023/07/16 02:26:29;;;;;;;1.52;0.28;;;13.50;99.90;;;;;;4924324;29;20056;-89
2023/07/16 02:28:54;;;;;;;1.58;0.40;;;13.50;99.90;;;;;;4925462;29;20070;-89
2023/07/16 02:31:20;;;;;;;1.17;0.60;;;13.50;99.90;;;;;;4925546;29;20080;-89
2023/07/16 02:33:46;;;;;;;2.15;0.43;;;13.60;99.90;;;;;;4924966;29;20027;-89
2023/07/16 02:36:12;;;;;;;0.45;0.20;;;13.50;99.90;;;;;;4926413;29;20043;-90
2023/07/16 02:38:37;;;;;;;1.35;0.40;;;13.50;99.90;;;;;;4923293;29;20032;-90
2023/07/16 02:41:03;;;;;;;1.90;0.63;;;13.50;99.90;;;;;;4925258;29;20034;-89
2023/07/16 02:43:31;;;;;;;2.22;0.32;;;13.50;99.90;;;;;;4924741;29;20034;-90
2023/07/16 02:45:57;;;;;;;2.20;0.40;;;13.50;99.90;;;;;;4924373;29;20031;-89
2023/07/16 02:48:23;;;;;;;1.95;0.40;;;13.50;99.90;;;;;;4924894;29;20120;-87
2023/07/16 02:50:48;;;;;;;1.90;0.50;;;13.50;99.90;;;;;;4925764;29;20072;-89
2023/07/16 02:53:14;;;;;;;1.05;0.40;;;13.40;99.90;;;;;;4924355;29;20036;-89
2023/07/16 02:55:39;;;;;;;1.77;0.30;;;13.40;99.90;;;;;;4923704;29;20021;-89
2023/07/16 02:58:05;;;;;;;2.58;0.30;;;13.40;99.90;;;;;;4925473;29;20036;-89
2023/07/16 03:00:32;;;;;;;3.58;0.60;;;13.40;99.90;;;;;;4924995;29;20122;-89
2023/07/16 03:03:00;;;;;;;1.27;0.60;;;13.40;99.90;;;;;;4923738;29;20027;-89
2023/07/16 03:05:28;;;;;;;1.13;0.45;;;13.40;99.90;;;;;;4924280;29;20026;-88
2023/07/16 03:07:54;;;;;;;2.35;0.70;;;13.40;99.90;;;;;;4924289;29;20020;-88
2023/07/16 03:10:21;;;;;;;5.57;1.60;;;13.40;99.90;;;;;;4923914;29;20036;-88
2023/07/16 03:12:47;;;;;;;5.53;1.95;;;13.40;99.90;;;;;;4924236;29;20028;-88
2023/07/16 03:15:13;;;;;;;2.63;1.73;;;13.40;99.90;;;;;;4924877;29;20039;-89
2023/07/16 03:17:38;;;;;;;9.00;1.92;;;13.40;99.90;;;;;;4923087;29;20066;-88
2023/07/16 03:20:05;;;;;;;5.43;1.73;;;13.40;99.90;;;;;;4924985;29;20111;-90
2023/07/16 03:22:31;;;;;;;12.93;3.38;;;13.40;99.90;;;;;;4923225;29;20028;-88
2023/07/16 03:24:57;;;;;;;5.15;2.20;;;13.50;99.90;;;;;;4925794;29;20035;-89
2023/07/16 03:27:23;;;;;;;4.32;1.85;;;13.40;99.90;;;;;;4923708;29;20035;-89
2023/07/16 03:29:48;;;;;;;9.85;2.53;;;13.50;99.90;;;;;;4923871;29;20020;-89
2023/07/16 03:32:14;;;;;;;1.77;1.25;;;13.50;99.90;;;;;;4923312;29;20024;-87
2023/07/16 03:34:39;;;;;;;3.05;1.02;;;13.50;99.90;;;;;;4925357;29;20024;-88
2023/07/16 03:37:05;;;;;;;7.90;1.38;;;13.50;99.90;;;;;;4924671;29;20036;-88
2023/07/16 03:39:31;;;;;;;3.00;1.05;;;13.50;99.90;;;;;;4924726;29;20441;-87
2023/07/16 03:41:56;;;;;;;2.97;0.88;;;13.50;99.90;;;;;;4924986;29;20032;-87
2023/07/16 03:44:22;;;;;;;1.48;0.80;;;13.50;99.90;;;;;;4923990;29;20020;-88
2023/07/16 03:46:48;;;;;;;3.10;0.90;;;13.50;99.90;;;;;;4923084;29;20032;-88
2023/07/16 03:49:13;;;;;;;3.92;0.80;;;13.50;99.90;;;;;;4925392;29;20028;-88
2023/07/16 03:51:39;;;;;;;3.15;0.90;;;13.50;99.90;;;;;;4926266;29;20138;-87
2023/07/16 03:54:07;;;;;;;1.98;1.17;;;13.50;99.90;;;;;;4927406;29;20610;-86
2023/07/16 03:56:33;;;;;;;5.85;1.30;;;13.50;99.90;;;;;;4923443;29;20102;-90
2023/07/16 03:58:59;;;;;;;3.13;1.00;;;13.50;99.90;;;;;;4924266;29;20096;-89
2023/07/16 04:01:24;;;;;;;6.32;1.50;;;13.50;99.90;;;;;;4926365;29;20398;-88
2023/07/16 04:03:50;;;;;;;3.78;1.25;;;13.50;99.90;;;;;;4927776;29;20553;-87
2023/07/16 04:06:15;;;;;;;4.30;1.10;;;13.50;99.90;;;;;;4926136;29;20079;-88
2023/07/16 04:08:41;;;;;;;3.90;1.35;;;13.50;99.90;;;;;;4925245;29;20028;-87
2023/07/16 04:11:07;;;;;;;4.40;1.55;;;13.50;99.90;;;;;;4923983;29;20067;-89
2023/07/16 04:13:33;;;;;;;8.88;2.25;;;13.50;99.90;;;;;;4929533;29;20032;-88
2023/07/16 04:15:58;;;;;;;4.25;2.10;;;13.50;99.90;;;;;;4922636;29;20031;-88
2023/07/16 04:18:25;;;;;;;6.75;2.40;;;13.50;99.90;;;;;;4922991;29;20170;-89
2023/07/16 04:20:51;;;;;;;7.93;2.30;;;13.50;99.90;;;;;;4923221;29;20027;-89
2023/07/16 04:23:16;;;;;;;8.18;3.05;;;13.50;99.90;;;;;;4921807;29;20028;-88
2023/07/16 04:25:42;;;;;;;7.57;2.55;;;13.50;99.90;;;;;;4923229;29;20538;-89
2023/07/16 04:28:08;;;;;;;5.50;2.45;;;13.50;99.90;;;;;;4923579;29;20062;-88
2023/07/16 04:30:33;;;;;;;7.03;2.63;;;13.50;99.90;;;;;;4922779;29;20043;-86
2023/07/16 04:32:59;;;;;;;2.75;1.77;;;13.50;99.90;;;;;;4922651;29;20529;-89
2023/07/16 04:35:25;;;;;;;4.28;1.77;;;13.50;99.90;;;;;;4922619;29;20052;-88
2023/07/16 04:37:50;;;;;;;4.85;2.40;;;13.50;99.90;;;;;;4923122;29;20043;-88
2023/07/16 04:40:16;;;;;;;2.58;2.10;;;13.50;99.90;;;;;;4923083;29;20020;-89
2023/07/16 04:42:41;;;;;;;5.88;1.85;;;13.50;99.90;;;;;;4925999;29;20107;-88
2023/07/16 04:45:07;;;;;;;5.07;1.48;;;13.50;99.90;;;;;;4925158;29;20150;-89
2023/07/16 04:47:33;;;;;;;3.85;1.52;;;13.50;99.90;;;;;;4925545;29;20024;-88
2023/07/16 04:49:59;;;;;;;3.28;1.80;;;13.50;99.90;;;;;;4926185;29;20083;-88
2023/07/16 04:52:25;;;;;;;3.47;1.13;;;13.60;99.90;;;;;;4926168;29;20455;-89
2023/07/16 04:54:50;;;;;;;4.43;1.40;;;13.50;99.90;;;;;;4891908;29;1156361;-88
2023/07/16 04:57:16;;;;;;;4.68;1.38;;;13.50;99.90;;;;;;4925804;29;20569;-89
2023/07/16 04:59:42;;;;;;;2.47;1.25;;;13.50;99.90;;;;;;4927631;29;20028;-88
2023/07/16 05:02:07;;;;;;;3.22;1.30;;;13.50;99.90;;;;;;4925520;29;20020;-89
2023/07/16 05:04:34;;;;;;;4.85;1.08;;;13.50;99.90;;;;;;4927431;29;20028;-90
2023/07/16 05:07:02;;;;;;;3.53;1.35;;;13.50;99.90;;;;;;4926728;29;20048;-88
2023/07/16 05:09:28;;;;;;;2.30;1.30;;;13.50;99.90;;;;;;4925259;29;20030;-90
2023/07/16 05:11:54;;;;;;;4.90;1.08;;;13.50;99.90;;;;;;4928389;29;20102;-90
2023/07/16 05:14:19;;;;;;;3.72;1.10;;;13.50;99.90;;;;;;4925796;29;20036;-89
2023/07/16 05:16:45;;;;;;;5.25;0.95;;;13.50;99.90;;;;;;4928397;29;20036;-90
2023/07/16 05:19:11;;;;;;;2.30;1.33;;;13.50;99.90;;;;;;4928373;29;20039;-90
2023/07/16 05:21:36;;;;;;;4.95;1.50;;;13.50;99.90;;;;;;4926796;29;20074;-88
2023/07/16 05:24:02;;;;;;;5.72;1.25;;;13.50;99.90;;;;;;4927061;29;20461;-89
2023/07/16 05:26:28;;;;;;;5.63;3.13;;;13.50;99.90;;;;;;4926915;29;20024;-90
2023/07/16 05:28:54;;;;;;;4.03;1.88;;;13.50;99.90;;;;;;4930858;29;20247;-90
2023/07/16 05:31:19;;;;;;;5.95;1.70;;;13.50;99.90;;;;;;4927200;29;20023;-91
2023/07/16 05:33:45;;;;;;;2.40;1.58;;;13.50;99.90;;;;;;4929567;29;20034;-89
2023/07/16 05:36:10;;;;;;;4.85;1.83;;;13.50;99.90;;;;;;4925917;29;20083;-91
2023/07/16 05:38:36;;;;;;;4.78;2.30;;;13.50;99.90;;;;;;4927896;29;20039;-91
2023/07/16 05:41:03;;;;;;;5.18;2.58;;;13.50;99.90;;;;;;4933524;29;20029;-88
2023/07/16 05:43:28;;;;;;;9.10;3.72;;;13.50;99.90;;;;;;4926644;29;20032;-89
2023/07/16 05:45:55;;;;;;;4.93;3.30;;;13.40;99.90;;;;;;4926977;29;20045;-88
2023/07/16 05:48:20;;;;;;;6.05;2.53;;;13.40;99.90;;;;;;4927869;29;20020;-90
2023/07/16 05:50:46;;;;;;;6.25;2.97;;;13.40;99.90;;;;;;4925030;29;20024;-90
2023/07/16 05:53:13;;;;;;;6.60;3.15;;;13.40;99.90;;;;;;4925779;29;20573;-90
2023/07/16 05:55:42;;;;;;;9.48;3.30;;;13.40;99.90;;;;;;4926074;29;20016;-90
2023/07/16 05:58:08;;;;;;;7.63;2.70;;;13.40;99.90;;;;;;4923730;29;20036;-88
2023/07/16 06:00:34;;;;;;;7.35;2.50;;;13.40;99.90;;;;;;4925014;29;20016;-91
2023/07/16 06:03:01;;;;;;;9.30;2.78;;;13.40;99.90;;;;;;4924520;29;20073;-90
2023/07/16 06:05:30;;;;;;;7.18;2.70;;;13.40;99.90;;;;;;4926592;29;20024;-90
2023/07/16 06:07:56;;;;;;;4.78;2.17;;;13.40;99.90;;;;;;4928967;29;20176;-90
2023/07/16 06:10:22;;;;;;;9.57;2.50;;;13.40;99.90;;;;;;4929301;29;20031;-90
2023/07/16 06:12:47;;;;;;;7.35;2.33;;;13.30;99.90;;;;;;4929504;29;20047;-90
2023/07/16 06:15:13;;;;;;;5.72;2.22;;;13.30;99.90;;;;;;4930367;29;20075;-90
2023/07/16 06:17:38;;;;;;;6.10;2.40;;;13.30;99.90;;;;;;4927092;29;20043;-89
2023/07/16 06:20:06;;;;;;;7.72;2.80;;;13.30;99.90;;;;;;4929570;29;20028;-90
2023/07/16 06:22:31;;;;;;;10.65;2.47;;;13.30;99.90;;;;;;4925065;29;20116;-89
2023/07/16 06:24:57;;;;;;;7.15;2.50;;;13.20;99.90;;;;;;4925267;29;20123;-88
2023/07/16 06:27:23;;;;;;;10.73;2.47;;;13.20;99.90;;;;;;4926063;29;20075;-90
2023/07/16 06:29:48;;;;;;;7.35;2.72;;;13.20;99.90;;;;;;4926103;29;20024;-90
2023/07/16 06:32:14;;;;;;;11.38;2.20;;;13.20;99.90;;;;;;4924972;29;20120;-89
2023/07/16 06:34:39;;;;;;;9.15;2.08;;;13.10;99.90;;;;;;4925493;29;20092;-90
2023/07/16 06:37:05;;;;;;;10.10;2.30;;;13.20;99.90;;;;;;4926242;29;20110;-88
2023/07/16 06:39:31;;;;;;;7.90;2.53;;;13.20;99.90;;;;;;4928016;29;20115;-90
2023/07/16 06:41:57;;;;;;;11.25;2.60;;;13.20;99.90;;;;;;4927099;29;20063;-90
2023/07/16 06:44:23;;;;;;;9.05;1.98;;;13.20;99.90;;;;;;4926794;29;20110;-87
2023/07/16 06:46:49;;;;;;;8.77;2.08;;;13.20;99.90;;;;;;4925848;29;20020;-90
2023/07/16 06:49:15;;;;;;;12.88;2.30;;;13.20;99.90;;;;;;4931779;29;20736;-88
2023/07/16 06:51:40;;;;;;;7.70;2.20;;;13.20;99.90;;;;;;4929493;29;20030;-90
2023/07/16 06:54:07;;;;;;;7.57;2.10;;;13.30;99.90;;;;;;4927518;29;20322;-89
2023/07/16 06:56:33;;;;;;;8.55;2.00;;;13.40;99.90;;;;;;4933943;29;20055;-89
2023/07/16 06:58:58;;;;;;;5.97;2.00;;;13.40;99.90;;;;;;4933565;29;20071;-90
2023/07/16 07:01:24;;;;;;;10.05;2.00;;;13.40;99.90;;;;;;4934397;29;20091;-90
2023/07/16 07:03:50;;;;;;;6.50;2.45;;;13.40;99.90;;;;;;4933399;29;20031;-90
2023/07/16 07:06:15;;;;;;;6.00;2.85;;;13.40;99.90;;;;;;4929939;29;20017;-88
2023/07/16 07:08:41;;;;;;;7.07;2.03;;;13.40;99.90;;;;;;4934280;29;20132;-89
2023/07/16 07:11:07;;;;;;;13.13;2.35;;;13.40;99.90;;;;;;4935390;29;20028;-88
2023/07/16 07:13:32;;;;;;;9.90;1.90;;;13.40;99.90;;;;;;4936218;29;20091;-89
2023/07/16 07:15:58;;;;;;;9.07;2.88;;;13.50;99.90;;;;;;4933589;29;20022;-88
2023/07/16 07:18:24;;;;;;;9.07;2.47;;;13.50;99.90;;;;;;4927978;29;20123;-88
2023/07/16 07:20:49;;;;;;;8.60;2.30;;;13.60;99.90;;;;;;4929397;29;20023;-89
2023/07/16 07:23:15;;;;;;;8.23;2.22;;;13.60;99.90;;;;;;4933390;29;20043;-89
2023/07/16 07:25:41;;;;;;;11.60;2.22;;;13.70;99.90;;;;;;4930979;29;20163;-88
2023/07/16 07:28:07;;;;;;;8.20;1.90;;;13.70;99.90;;;;;;4928044;29;20491;-89
2023/07/16 07:30:32;;;;;;;8.57;2.25;;;13.70;99.90;;;;;;4930158;29;20171;-91
2023/07/16 07:32:58;;;;;;;6.03;1.52;;;13.80;99.90;;;;;;4929883;29;20027;-90
2023/07/16 07:35:24;;;;;;;5.38;1.95;;;13.80;99.90;;;;;;4927909;29;20059;-89
2023/07/16 07:37:49;;;;;;;6.53;1.80;;;13.80;99.90;;;;;;4928413;29;20069;-91
2023/07/16 07:40:15;;;;;;;7.82;2.85;;;13.80;99.90;;;;;;4928268;29;20024;-92
2023/07/16 07:42:41;;;;;;;8.50;1.80;;;13.80;99.90;;;;;;4928913;29;20032;-90
2023/07/16 07:45:07;;;;;;;7.72;1.50;;;13.90;99.90;;;;;;4925839;29;20028;-90
2023/07/16 07:47:32;;;;;;;7.28;1.90;;;13.90;99.90;;;;;;4930960;29;20024;-89
2023/07/16 07:49:58;;;;;;;6.82;1.60;;;13.90;99.90;;;;;;4929854;29;20027;-89
2023/07/16 07:52:23;;;;;;;6.25;1.60;;;13.90;99.90;;;;;;4928797;29;20043;-90
2023/07/16 07:54:50;;;;;;;9.73;1.77;;;13.90;99.90;;;;;;4927759;29;20051;-89
2023/07/16 07:57:15;;;;;;;10.93;2.20;;;13.90;99.90;;;;;;4928136;29;20114;-88
2023/07/16 07:59:41;;;;;;;8.07;1.70;;;13.90;99.90;;;;;;4929076;29;20031;-89
2023/07/16 08:02:06;;;;;;;9.95;3.10;;;14.00;99.90;;;;;;4926186;29;20024;-88
2023/07/16 08:04:32;;;;;;;7.60;1.85;;;14.00;99.90;;;;;;4929953;29;20091;-91
2023/07/16 08:06:58;;;;;;;10.38;1.85;;;14.00;99.90;;;;;;4928890;29;20027;-91
2023/07/16 08:09:26;;;;;;;4.75;1.98;;;14.10;99.90;;;;;;4931619;29;20103;-90
2023/07/16 08:11:51;;;;;;;9.68;2.00;;;14.20;99.90;;;;;;4928413;29;20501;-89
2023/07/16 08:14:17;;;;;;;7.55;2.58;;;14.30;99.90;;;;;;4931078;29;20020;-90
2023/07/16 08:16:43;;;;;;;3.58;1.38;;;14.30;99.90;;;;;;4930698;29;20040;-90
2023/07/16 08:19:09;;;;;;;6.35;1.55;;;14.40;99.90;;;;;;4935682;29;20028;-90
2023/07/16 08:21:35;;;;;;;6.57;1.55;;;14.50;99.90;;;;;;4931713;29;20509;-89
2023/07/16 08:24:01;;;;;;;10.15;2.45;;;14.50;99.90;;;;;;4928295;29;20034;-91
2023/07/16 08:26:27;;;;;;;5.63;1.70;;;14.50;99.90;;;;;;4929792;29;20115;-89
2023/07/16 08:28:52;;;;;;;7.47;1.60;;;14.60;99.90;;;;;;4931818;29;20016;-90
2023/07/16 08:31:18;;;;;;;4.28;1.60;;;14.60;99.90;;;;;;4929861;29;20098;-90
2023/07/16 08:33:44;;;;;;;9.55;1.83;;;14.60;99.90;;;;;;4928383;29;20091;-91
2023/07/16 08:36:10;;;;;;;6.78;1.67;;;14.60;99.90;;;;;;4927439;29;20024;-91
2023/07/16 08:38:36;;;;;;;9.30;2.65;;;14.60;99.90;;;;;;4932855;29;20027;-90
2023/07/16 08:41:01;;;;;;;7.70;2.30;;;14.60;99.90;;;;;;4943195;29;20537;-90
2023/07/16 08:43:29;;;;;;;7.47;2.25;;;14.60;99.90;;;;;;4945502;29;20027;-89
2023/07/16 08:45:56;;;;;;;8.48;2.60;;;14.60;99.90;;;;;;4938878;29;20028;-91
2023/07/16 08:48:22;;;;;;;7.72;1.95;;;14.60;99.90;;;;;;4939424;29;20075;-90
2023/07/16 08:50:49;;;;;;;9.13;2.10;;;14.60;99.90;;;;;;4941881;29;20027;-91
2023/07/16 08:53:18;;;;;;;7.50;2.40;;;14.60;99.90;;;;;;4941588;29;20051;-92
2023/07/16 08:55:47;;;;;;;6.68;2.58;;;14.60;99.90;;;;;;4940156;29;20024;-91
2023/07/16 08:58:16;;;;;;;6.20;2.20;;;14.60;99.90;;;;;;4938606;29;20044;-91
2023/07/16 09:00:46;;;;;;;6.28;1.60;;;14.60;99.90;;;;;;4936178;29;20035;-90
2023/07/16 09:03:21;;;;;;;7.05;1.77;;;14.60;99.90;;;;;;4932670;29;20067;-92
2023/07/16 09:05:47;;;;;;;11.00;2.17;;;14.70;99.90;;;;;;4934635;29;20023;-87
2023/07/16 09:08:13;;;;;;;10.50;2.13;;;14.70;99.90;;;;;;4941920;29;20032;-91
2023/07/16 09:10:42;;;;;;;7.78;1.70;;;14.80;99.90;;;;;;4928370;29;20052;-92
2023/07/16 09:13:08;;;;;;;5.65;1.73;;;14.90;99.90;;;;;;4926739;29;20059;-92
2023/07/16 09:15:34;;;;;;;7.13;2.25;;;15.10;99.90;;;;;;4927005;29;20071;-93
2023/07/16 09:18:00;;;;;;;7.90;1.67;;;15.20;99.90;;;;;;4927272;29;20119;-92
2023/07/16 09:20:27;;;;;;;5.63;1.30;;;15.20;99.90;;;;;;4926987;29;20500;-91
2023/07/16 09:22:57;;;;;;;4.65;1.55;;;15.30;99.90;;;;;;4926982;29;20078;-90
2023/07/16 09:25:30;;;;;;;8.73;1.50;;;15.40;99.90;;;;;;4927086;29;20036;-92
2023/07/16 09:27:58;;;;;;;5.45;1.63;;;15.40;99.90;;;;;;4910544;29;20028;-92
2023/07/16 09:30:24;;;;;;;7.55;1.67;;;15.40;99.90;;;;;;4929454;29;20056;-93
2023/07/16 09:32:50;;;;;;;7.72;1.60;;;15.50;99.90;;;;;;4927624;29;20431;-89
2023/07/16 09:35:17;;;;;;;6.68;1.48;;;15.50;99.90;;;;;;4929024;29;20043;-92
2023/07/16 09:37:43;;;;;;;4.82;1.63;;;15.60;99.90;;;;;;4926635;29;20496;-92
2023/07/16 09:40:11;;;;;;;2.72;0.80;;;15.70;99.90;;;;;;4928087;29;20021;-92
2023/07/16 09:42:39;;;;;;;5.50;1.25;;;15.80;99.90;;;;;;4928282;29;20036;-90
2023/07/16 09:45:16;;;;;;;4.50;1.40;;;15.90;99.90;;;;;;4925659;29;20114;-90
2023/07/16 09:47:42;;;;;;;10.77;1.33;;;16.00;99.90;;;;;;4926831;29;20120;-92
2023/07/16 09:50:08;;;;;;;6.90;1.35;;;16.10;99.90;;;;;;4924784;29;20107;-91
2023/07/16 09:52:34;;;;;;;4.03;1.40;;;16.10;99.90;;;;;;4924504;29;20028;-93
2023/07/16 09:55:04;;;;;;;12.35;1.52;;;16.10;99.90;;;;;;4927151;29;20056;-93
2023/07/16 09:57:36;;;;;;;7.65;1.42;;;16.20;99.90;;;;;;4926160;29;20115;-92
2023/07/16 10:00:06;;;;;;;5.30;1.50;;;16.30;99.90;;;;;;4929151;29;20062;-92
2023/07/16 10:02:35;;;;;;;8.45;1.25;;;16.20;99.90;;;;;;4934973;29;20035;-91
2023/07/16 10:05:15;;;;;;;6.35;1.30;;;16.20;99.90;;;;;;4935756;29;20107;-89
2023/07/16 10:07:41;;;;;;;6.15;1.38;;;16.10;99.90;;;;;;4932590;29;20024;-92
2023/07/16 10:10:11;;;;;;;8.38;1.88;;;16.00;99.90;;;;;;4933121;29;20024;-92
2023/07/16 10:12:38;;;;;;;7.55;1.38;;;15.90;99.90;;;;;;4936920;29;20048;-92
2023/07/16 10:15:05;;;;;;;9.27;1.52;;;15.80;99.90;;;;;;4927493;29;20115;-93
2023/07/16 10:17:32;;;;;;;6.97;1.42;;;15.70;99.90;;;;;;4929469;29;20046;-92
2023/07/16 10:19:58;;;;;;;7.70;1.92;;;15.60;99.90;;;;;;4925358;29;20031;-92
2023/07/16 10:22:38;;;;;;;4.68;1.67;;;15.60;99.90;;;;;;4925141;29;20048;-92
2023/07/16 10:25:10;;;;;;;6.73;1.57;;;15.70;99.90;;;;;;4924971;29;20027;-91
2023/07/16 10:27:37;;;;;;;3.33;1.27;;;15.80;99.90;;;;;;4924768;29;20023;-92
2023/07/16 10:30:05;;;;;;;7.97;2.05;;;15.80;99.90;;;;;;4926395;29;20032;-90
2023/07/16 10:32:32;;;;;;;17.50;2.05;;;15.90;99.90;;;;;;4910176;29;20063;-89
2023/07/16 10:34:58;;;;;;;11.20;2.40;;;16.20;99.90;;;;;;4925436;29;20028;-91
2023/07/16 10:37:25;;;;;;;6.95;2.42;;;16.50;99.90;;;;;;4925911;29;20062;-90
2023/07/16 10:39:53;;;;;;;4.82;1.55;;;16.80;99.90;;;;;;4926058;29;20020;-88
2023/07/16 10:42:23;;;;;;;7.05;1.48;;;16.90;99.90;;;;;;4924019;29;20546;-90
2023/07/16 10:44:51;;;;;;;2.88;1.20;;;16.90;99.90;;;;;;4924680;29;20136;-90
2023/07/16 10:47:36;;;;;;;6.95;1.40;;;16.90;99.90;;;;;;4925629;29;20039;-91
2023/07/16 10:50:10;;;;;;;4.05;1.50;;;16.90;99.90;;;;;;4928180;29;20027;-91
2023/07/16 10:52:37;;;;;;;2.92;1.65;;;17.00;99.90;;;;;;4928096;29;20058;-91
2023/07/16 10:55:03;;;;;;;4.03;1.40;;;17.20;99.90;;;;;;4924186;29;20043;-90
2023/07/16 10:57:29;;;;;;;7.57;1.65;;;17.40;99.90;;;;;;4924137;29;20073;-91
2023/07/16 10:59:57;;;;;;;4.55;1.30;;;17.60;99.90;;;;;;4925950;29;20035;-90
2023/07/16 11:02:24;;;;;;;4.72;1.73;;;17.90;99.90;;;;;;4922999;29;20083;-90
2023/07/16 11:04:53;;;;;;;4.97;1.25;;;18.10;99.90;;;;;;4923418;29;20020;-90
2023/07/16 11:07:19;;;;;;;4.15;1.80;;;18.20;99.90;;;;;;4925103;29;20039;-88
2023/07/16 11:09:53;;;;;;;3.55;0.90;;;18.20;99.90;;;;;;4942170;28;20040;-91
2023/07/16 11:12:24;;;;;;;4.57;1.20;;;18.20;99.90;;;;;;4925033;29;20031;-90
2023/07/16 11:14:52;;;;;;;4.55;1.17;;;18.40;99.90;;;;;;4924962;29;20079;-88
2023/07/16 11:17:17;;;;;;;3.50;1.00;;;18.40;99.90;;;;;;4922651;29;20059;-90
2023/07/16 11:19:48;;;;;;;4.15;1.25;;;18.40;99.90;;;;;;4923748;29;20497;-90
2023/07/16 11:22:15;;;;;;;3.53;0.80;;;18.50;99.90;;;;;;4923897;29;20092;-88
2023/07/16 11:24:49;;;;;;;6.50;1.67;;;18.60;99.90;;;;;;4923914;29;20047;-89
2023/07/16 11:27:31;;;;;;;4.40;1.50;;;18.90;99.90;;;;;;4924261;29;20075;-89
2023/07/16 11:29:59;;;;;;;4.97;0.98;;;18.90;99.90;;;;;;4923163;29;20032;-89
2023/07/16 11:32:33;;;;;;;3.42;1.25;;;19.00;99.90;;;;;;4924807;29;20024;-89
2023/07/16 11:35:01;;;;;;;4.72;1.50;;;18.90;99.90;;;;;;4926065;29;20027;-91
2023/07/16 11:37:29;;;;;;;4.55;1.33;;;18.70;99.90;;;;;;4926736;29;20032;-92
2023/07/16 11:40:00;;;;;;;5.05;1.45;;;18.50;99.90;;;;;;4925950;29;20091;-91
2023/07/16 11:42:30;;;;;;;5.32;1.52;;;18.40;99.90;;;;;;4924816;29;20031;-90
2023/07/16 11:44:56;;;;;;;4.20;1.80;;;18.30;99.90;;;;;;4925611;29;20482;-90
2023/07/16 11:47:22;;;;;;;3.38;1.27;;;18.10;99.90;;;;;;4923369;29;20083;-91
2023/07/16 11:49:49;;;;;;;7.43;1.30;;;18.00;99.90;;;;;;4924690;29;20032;-90
2023/07/16 11:52:18;;;;;;;3.25;1.15;;;17.80;99.90;;;;;;4924539;29;20025;-87
2023/07/16 11:54:44;;;;;;;6.18;1.25;;;17.80;99.90;;;;;;4922771;29;20107;-88
2023/07/16 11:57:15;;;;;;;5.07;1.27;;;17.70;99.90;;;;;;4922881;29;20122;-88
2023/07/16 11:59:41;;;;;;;4.68;1.30;;;17.50;99.90;;;;;;4924548;29;20044;-87
2023/07/16 12:02:07;;;;;;;3.65;1.50;;;17.40;99.90;;;;;;4924444;29;20025;-89
2023/07/16 12:04:33;;;;;;;8.95;1.77;;;17.40;99.90;;;;;;4923098;29;20132;-88
2023/07/16 12:06:59;;;;;;;7.13;1.60;;;17.40;99.90;;;;;;4924618;29;20135;-88
2023/07/16 12:09:24;;;;;;;6.35;2.30;;;17.40;99.90;;;;;;4924930;29;20028;-88
2023/07/16 12:11:50;;;;;;;9.07;2.20;;;17.50;99.90;;;;;;4924082;29;20048;-88
2023/07/16 12:14:16;;;;;;;6.97;1.80;;;17.70;99.90;;;;;;4924799;29;20036;-88
2023/07/16 12:16:41;;;;;;;4.90;1.55;;;17.90;99.90;;;;;;4924834;29;20394;-88
2023/07/16 12:19:09;;;;;;;4.90;1.60;;;18.10;99.90;;;;;;4922948;29;20035;-89
2023/07/16 12:21:34;;;;;;;7.63;1.73;;;18.50;99.90;;;;;;4924325;29;20047;-88
2023/07/16 12:24:00;;;;;;;4.25;1.60;;;18.80;99.90;;;;;;4922254;29;20519;-87
2023/07/16 12:26:26;;;;;;;5.05;1.55;;;19.20;99.90;;;;;;4921556;29;20371;-88
2023/07/16 12:28:52;;;;;;;5.70;1.38;;;19.50;99.90;;;;;;4923082;29;20071;-89
2023/07/16 12:31:18;;;;;;;3.95;1.05;;;19.60;99.90;;;;;;4921143;29;20111;-88
2023/07/16 12:33:44;;;;;;;4.13;1.25;;;19.60;99.90;;;;;;4922969;29;20099;-88
2023/07/16 12:36:10;;;;;;;5.22;1.20;;;19.30;99.90;;;;;;4927077;29;20024;-88
2023/07/16 12:38:35;;;;;;;3.15;1.48;;;19.00;99.90;;;;;;4926085;29;20032;-90
2023/07/16 12:41:01;;;;;;;2.30;1.25;;;18.50;99.90;;;;;;4924281;29;20020;-89
2023/07/16 12:43:26;;;;;;;2.97;1.20;;;18.30;99.90;;;;;;4924401;29;20409;-89